sensor_id;sensor_type;location;lat;lon;timestamp;temperature;humidity
36716;DHT22;22699;51.034;3.730;2024-02-16T00:01:13;13.80;99.90
36716;DHT22;22699;51.034;3.730;2024-02-16T00:03:40;14.00;99.90
36716;DHT22;22699;51.034;3.730;2024-02-16T00:06:07;14.60;99.90
36716;DHT22;22699;51.034;3.730;2024-02-16T00:08:33;14.40;99.90
36716;DHT22;22699;51.034;3.730;2024-02-16T00:11:00;14.40;99.90
36716;DHT22;22699;51.034;3.730;2024-02-16T00:13:30;14.80;99.90
36716;DHT22;22699;51.034;3.730;2024-02-16T00:15:57;14.50;99.90
36716;DHT22;22699;51.034;3.730;2024-02-16T00:18:24;14.50;99.90
36716;DHT22;22699;51.034;3.730;2024-02-16T00:20:49;14.60;99.90
36716;DHT22;22699;51.034;3.730;2024-02-16T00:23:15;14.40;99.90
36716;DHT22;22699;51.034;3.730;2024-02-16T00:25:41;14.30;99.90
36716;DHT22;22699;51.034;3.730;2024-02-16T00:28:07;14.20;99.90
36716;DHT22;22699;51.034;3.730;2024-02-16T00:30:34;14.30;99.90
36716;DHT22;22699;51.034;3.730;2024-02-16T00:33:01;14.10;99.90
36716;DHT22;22699;51.034;3.730;2024-02-16T00:35:27;14.30;99.90
36716;DHT22;22699;51.034;3.730;2024-02-16T00:37:53;14.30;99.90
36716;DHT22;22699;51.034;3.730;2024-02-16T00:40:18;14.20;99.90
36716;DHT22;22699;51.034;3.730;2024-02-16T00:42:45;14.00;99.90
36716;DHT22;22699;51.034;3.730;2024-02-16T00:45:12;14.10;99.90
36716;DHT22;22699;51.034;3.730;2024-02-16T00:47:38;14.10;99.90
36716;DHT22;22699;51.034;3.730;2024-02-16T00:50:07;14.00;99.90
36716;DHT22;22699;51.034;3.730;2024-02-16T00:52:34;14.10;99.90
36716;DHT22;22699;51.034;3.730;2024-02-16T00:55:00;14.10;99.90
36716;DHT22;22699;51.034;3.730;2024-02-16T00:57:27;14.10;99.90
36716;DHT22;22699;51.034;3.730;2024-02-16T00:59:52;14.10;99.90
36716;DHT22;22699;51.034;3.730;2024-02-16T01:02:20;14.40;99.90
36716;DHT22;22699;51.034;3.730;2024-02-16T01:04:47;14.00;99.90
36716;DHT22;22699;51.034;3.730;2024-02-16T01:07:20;13.90;99.90
36716;DHT22;22699;51.034;3.730;2024-02-16T01:09:45;13.90;99.90
36716;DHT22;22699;51.034;3.730;2024-02-16T01:12:12;14.10;99.90
36716;DHT22;22699;51.034;3.730;2024-02-16T01:14:37;14.00;99.90
36716;DHT22;22699;51.034;3.730;2024-02-16T01:17:03;13.90;99.90
36716;DHT22;22699;51.034;3.730;2024-02-16T01:19:30;13.90;99.90
36716;DHT22;22699;51.034;3.730;2024-02-16T01:21:55;13.90;99.90
36716;DHT22;22699;51.034;3.730;2024-02-16T01:24:23;14.00;99.90
36716;DHT22;22699;51.034;3.730;2024-02-16T01:26:49;14.00;99.90
36716;DHT22;22699;51.034;3.730;2024-02-16T01:29:14;14.40;99.90
36716;DHT22;22699;51.034;3.730;2024-02-16T01:31:40;14.10;99.90
36716;DHT22;22699;51.034;3.730;2024-02-16T01:34:05;14.30;99.90
36716;DHT22;22699;51.034;3.730;2024-02-16T01:36:31;14.30;99.90
36716;DHT22;22699;51.034;3.730;2024-02-16T01:38:57;14.20;99.90
36716;DHT22;22699;51.034;3.730;2024-02-16T01:41:22;14.20;99.90
36716;DHT22;22699;51.034;3.730;2024-02-16T01:43:52;14.00;99.90
36716;DHT22;22699;51.034;3.730;2024-02-16T01:46:21;14.10;99.90
36716;DHT22;22699;51.034;3.730;2024-02-16T01:48:49;14.00;99.90
36716;DHT22;22699;51.034;3.730;2024-02-16T01:51:16;14.00;99.90
36716;DHT22;22699;51.034;3.730;2024-02-16T01:53:42;13.90;99.90
36716;DHT22;22699;51.034;3.730;2024-02-16T01:56:08;14.10;99.90
36716;DHT22;22699;51.034;3.730;2024-02-16T01:58:34;14.10;99.90
36716;DHT22;22699;51.034;3.730;2024-02-16T02:00:59;13.90;99.90
36716;DHT22;22699;51.034;3.730;2024-02-16T02:03:25;13.70;99.90
36716;DHT22;22699;51.034;3.730;2024-02-16T02:05:52;14.00;99.90
36716;DHT22;22699;51.034;3.730;2024-02-16T02:08:21;13.80;99.90
36716;DHT22;22699;51.034;3.730;2024-02-16T02:10:47;13.70;99.90
36716;DHT22;22699;51.034;3.730;2024-02-16T02:13:13;13.60;99.90
36716;DHT22;22699;51.034;3.730;2024-02-16T02:15:40;13.70;99.90
36716;DHT22;22699;51.034;3.730;2024-02-16T02:18:06;13.90;99.90
36716;DHT22;22699;51.034;3.730;2024-02-16T02:20:33;13.70;99.90
36716;DHT22;22699;51.034;3.730;2024-02-16T02:23:02;14.00;99.90
36716;DHT22;22699;51.034;3.730;2024-02-16T02:25:29;13.60;99.90
36716;DHT22;22699;51.034;3.730;2024-02-16T02:27:55;13.90;99.90
36716;DHT22;22699;51.034;3.730;2024-02-16T02:30:21;13.70;99.90
36716;DHT22;22699;51.034;3.730;2024-02-16T02:32:47;13.60;99.90
36716;DHT22;22699;51.034;3.730;2024-02-16T02:35:15;14.20;99.90
36716;DHT22;22699;51.034;3.730;2024-02-16T02:37:46;14.00;99.90
36716;DHT22;22699;51.034;3.730;2024-02-16T02:40:13;14.00;99.90
36716;DHT22;22699;51.034;3.730;2024-02-16T02:42:39;14.00;99.90
36716;DHT22;22699;51.034;3.730;2024-02-16T02:45:06;14.10;99.90
36716;DHT22;22699;51.034;3.730;2024-02-16T02:47:33;14.00;99.90
36716;DHT22;22699;51.034;3.730;2024-02-16T02:50:11;14.30;99.90
36716;DHT22;22699;51.034;3.730;2024-02-16T02:52:37;14.00;99.90
36716;DHT22;22699;51.034;3.730;2024-02-16T02:55:04;14.00;99.90
36716;DHT22;22699;51.034;3.730;2024-02-16T02:57:30;14.00;99.90
36716;DHT22;22699;51.034;3.730;2024-02-16T03:00:07;14.10;99.90
36716;DHT22;22699;51.034;3.730;2024-02-16T03:02:37;13.90;99.90
36716;DHT22;22699;51.034;3.730;2024-02-16T03:05:05;13.90;99.90
36716;DHT22;22699;51.034;3.730;2024-02-16T03:07:35;13.80;99.90
36716;DHT22;22699;51.034;3.730;2024-02-16T03:10:03;14.00;99.90
36716;DHT22;22699;51.034;3.730;2024-02-16T03:12:39;14.20;99.90
36716;DHT22;22699;51.034;3.730;2024-02-16T03:15:06;14.40;99.90
36716;DHT22;22699;51.034;3.730;2024-02-16T03:17:33;14.50;99.90
36716;DHT22;22699;51.034;3.730;2024-02-16T03:19:59;14.40;99.90
36716;DHT22;22699;51.034;3.730;2024-02-16T03:22:26;14.70;99.90
36716;DHT22;22699;51.034;3.730;2024-02-16T03:24:51;14.60;99.90
36716;DHT22;22699;51.034;3.730;2024-02-16T03:27:17;14.90;99.90
36716;DHT22;22699;51.034;3.730;2024-02-16T03:29:42;14.70;99.90
36716;DHT22;22699;51.034;3.730;2024-02-16T03:32:08;14.60;99.90
36716;DHT22;22699;51.034;3.730;2024-02-16T03:34:36;15.10;99.90
36716;DHT22;22699;51.034;3.730;2024-02-16T03:37:03;14.70;99.90
36716;DHT22;22699;51.034;3.730;2024-02-16T03:39:29;14.90;99.90
36716;DHT22;22699;51.034;3.730;2024-02-16T03:41:54;14.90;99.90
36716;DHT22;22699;51.034;3.730;2024-02-16T03:44:20;14.70;99.90
36716;DHT22;22699;51.034;3.730;2024-02-16T03:46:55;14.90;99.90
36716;DHT22;22699;51.034;3.730;2024-02-16T03:49:21;14.80;99.90
36716;DHT22;22699;51.034;3.730;2024-02-16T03:51:49;14.70;99.90
36716;DHT22;22699;51.034;3.730;2024-02-16T03:54:19;14.70;99.90
36716;DHT22;22699;51.034;3.730;2024-02-16T03:56:44;14.80;99.90
36716;DHT22;22699;51.034;3.730;2024-02-16T03:59:11;14.40;99.90
36716;DHT22;22699;51.034;3.730;2024-02-16T04:01:47;14.60;99.90
36716;DHT22;22699;51.034;3.730;2024-02-16T04:04:12;14.70;99.90
36716;DHT22;22699;51.034;3.730;2024-02-16T04:06:39;14.60;99.90
36716;DHT22;22699;51.034;3.730;2024-02-16T04:09:05;14.80;99.90
36716;DHT22;22699;51.034;3.730;2024-02-16T04:11:34;14.80;99.90
36716;DHT22;22699;51.034;3.730;2024-02-16T04:14:00;14.60;99.90
36716;DHT22;22699;51.034;3.730;2024-02-16T04:16:26;14.90;99.90
36716;DHT22;22699;51.034;3.730;2024-02-16T04:18:52;14.50;99.90
36716;DHT22;22699;51.034;3.730;2024-02-16T04:21:18;14.60;99.90
36716;DHT22;22699;51.034;3.730;2024-02-16T04:23:47;15.00;99.90
36716;DHT22;22699;51.034;3.730;2024-02-16T04:26:14;14.50;99.90
36716;DHT22;22699;51.034;3.730;2024-02-16T04:28:40;14.60;99.90
36716;DHT22;22699;51.034;3.730;2024-02-16T04:31:05;15.00;99.90
36716;DHT22;22699;51.034;3.730;2024-02-16T04:33:32;14.60;99.90
36716;DHT22;22699;51.034;3.730;2024-02-16T04:35:58;14.50;99.90
36716;DHT22;22699;51.034;3.730;2024-02-16T04:38:25;14.50;99.90
36716;DHT22;22699;51.034;3.730;2024-02-16T04:40:50;14.60;99.90
36716;DHT22;22699;51.034;3.730;2024-02-16T04:43:18;14.60;99.90
36716;DHT22;22699;51.034;3.730;2024-02-16T04:45:44;14.70;99.90
36716;DHT22;22699;51.034;3.730;2024-02-16T04:48:12;14.60;99.90
36716;DHT22;22699;51.034;3.730;2024-02-16T04:50:39;14.70;99.90
36716;DHT22;22699;51.034;3.730;2024-02-16T04:53:04;15.10;99.90
36716;DHT22;22699;51.034;3.730;2024-02-16T04:55:32;14.90;99.90
36716;DHT22;22699;51.034;3.730;2024-02-16T04:57:59;14.70;99.90
36716;DHT22;22699;51.034;3.730;2024-02-16T05:00:26;14.60;99.90
36716;DHT22;22699;51.034;3.730;2024-02-16T05:02:53;14.60;99.90
36716;DHT22;22699;51.034;3.730;2024-02-16T05:05:18;14.50;99.90
36716;DHT22;22699;51.034;3.730;2024-02-16T05:07:51;14.50;99.90
36716;DHT22;22699;51.034;3.730;2024-02-16T05:10:17;14.40;99.90
36716;DHT22;22699;51.034;3.730;2024-02-16T05:12:45;14.40;99.90
36716;DHT22;22699;51.034;3.730;2024-02-16T05:15:11;14.40;99.90
36716;DHT22;22699;51.034;3.730;2024-02-16T05:17:39;14.40;99.90
36716;DHT22;22699;51.034;3.730;2024-02-16T05:20:12;14.50;99.90
36716;DHT22;22699;51.034;3.730;2024-02-16T05:23:00;14.40;99.90
36716;DHT22;22699;51.034;3.730;2024-02-16T05:25:27;14.50;99.90
36716;DHT22;22699;51.034;3.730;2024-02-16T05:27:53;14.10;99.90
36716;DHT22;22699;51.034;3.730;2024-02-16T05:30:18;14.20;99.90
36716;DHT22;22699;51.034;3.730;2024-02-16T05:32:45;14.20;99.90
36716;DHT22;22699;51.034;3.730;2024-02-16T05:35:10;14.00;99.90
36716;DHT22;22699;51.034;3.730;2024-02-16T05:37:44;14.20;99.90
36716;DHT22;22699;51.034;3.730;2024-02-16T05:40:13;14.10;99.90
36716;DHT22;22699;51.034;3.730;2024-02-16T05:42:47;14.20;99.90
36716;DHT22;22699;51.034;3.730;2024-02-16T05:45:15;14.20;99.90
36716;DHT22;22699;51.034;3.730;2024-02-16T05:47:42;14.10;99.90
36716;DHT22;22699;51.034;3.730;2024-02-16T05:50:12;14.40;99.90
36716;DHT22;22699;51.034;3.730;2024-02-16T05:52:40;14.30;99.90
36716;DHT22;22699;51.034;3.730;2024-02-16T05:55:07;14.10;99.90
36716;DHT22;22699;51.034;3.730;2024-02-16T05:57:33;14.30;99.90
36716;DHT22;22699;51.034;3.730;2024-02-16T06:00:00;14.50;99.90
36716;DHT22;22699;51.034;3.730;2024-02-16T06:02:26;14.20;99.90
36716;DHT22;22699;51.034;3.730;2024-02-16T06:04:53;14.30;99.90
36716;DHT22;22699;51.034;3.730;2024-02-16T06:07:19;14.20;99.90
36716;DHT22;22699;51.034;3.730;2024-02-16T06:09:45;14.40;99.90
36716;DHT22;22699;51.034;3.730;2024-02-16T06:12:10;14.40;99.90
36716;DHT22;22699;51.034;3.730;2024-02-16T06:14:38;14.60;99.90
36716;DHT22;22699;51.034;3.730;2024-02-16T06:17:04;14.40;99.90
36716;DHT22;22699;51.034;3.730;2024-02-16T06:19:30;14.30;99.90
36716;DHT22;22699;51.034;3.730;2024-02-16T06:21:56;14.20;99.90
36716;DHT22;22699;51.034;3.730;2024-02-16T06:24:22;14.30;99.90
36716;DHT22;22699;51.034;3.730;2024-02-16T06:26:49;14.40;99.90
36716;DHT22;22699;51.034;3.730;2024-02-16T06:29:18;14.30;99.90
36716;DHT22;22699;51.034;3.730;2024-02-16T06:31:47;14.10;99.90
36716;DHT22;22699;51.034;3.730;2024-02-16T06:34:14;14.20;99.90
36716;DHT22;22699;51.034;3.730;2024-02-16T06:36:40;14.20;99.90
36716;DHT22;22699;51.034;3.730;2024-02-16T06:39:07;14.10;99.90
36716;DHT22;22699;51.034;3.730;2024-02-16T06:41:33;14.20;99.90
36716;DHT22;22699;51.034;3.730;2024-02-16T06:43:59;14.20;99.90
36716;DHT22;22699;51.034;3.730;2024-02-16T06:46:25;14.30;99.90
36716;DHT22;22699;51.034;3.730;2024-02-16T06:48:53;14.30;99.90
36716;DHT22;22699;51.034;3.730;2024-02-16T06:51:28;14.30;99.90
36716;DHT22;22699;51.034;3.730;2024-02-16T06:53:58;14.20;99.90
36716;DHT22;22699;51.034;3.730;2024-02-16T06:56:23;14.20;99.90
36716;DHT22;22699;51.034;3.730;2024-02-16T06:58:49;14.10;99.90
36716;DHT22;22699;51.034;3.730;2024-02-16T07:01:17;14.20;99.90
36716;DHT22;22699;51.034;3.730;2024-02-16T07:03:45;14.10;99.90
36716;DHT22;22699;51.034;3.730;2024-02-16T07:06:12;14.20;99.90
36716;DHT22;22699;51.034;3.730;2024-02-16T07:08:43;14.20;99.90
36716;DHT22;22699;51.034;3.730;2024-02-16T07:11:09;14.20;99.90
36716;DHT22;22699;51.034;3.730;2024-02-16T07:13:42;14.20;99.90
36716;DHT22;22699;51.034;3.730;2024-02-16T07:16:08;14.20;99.90
36716;DHT22;22699;51.034;3.730;2024-02-16T07:18:34;14.10;99.90
36716;DHT22;22699;51.034;3.730;2024-02-16T07:21:01;14.20;99.90
36716;DHT22;22699;51.034;3.730;2024-02-16T07:23:28;14.10;99.90
36716;DHT22;22699;51.034;3.730;2024-02-16T07:25:55;14.40;99.90
36716;DHT22;22699;51.034;3.730;2024-02-16T07:28:22;14.50;99.90
36716;DHT22;22699;51.034;3.730;2024-02-16T07:30:49;14.30;99.90
36716;DHT22;22699;51.034;3.730;2024-02-16T07:33:15;14.40;99.90
36716;DHT22;22699;51.034;3.730;2024-02-16T07:35:41;14.20;99.90
36716;DHT22;22699;51.034;3.730;2024-02-16T07:38:08;14.20;99.90
36716;DHT22;22699;51.034;3.730;2024-02-16T07:40:34;14.30;99.90
36716;DHT22;22699;51.034;3.730;2024-02-16T07:43:00;14.30;99.90
36716;DHT22;22699;51.034;3.730;2024-02-16T07:45:33;14.50;99.90
36716;DHT22;22699;51.034;3.730;2024-02-16T07:48:02;14.40;99.90
36716;DHT22;22699;51.034;3.730;2024-02-16T07:50:31;14.20;99.90
36716;DHT22;22699;51.034;3.730;2024-02-16T07:52:56;14.10;99.90
36716;DHT22;22699;51.034;3.730;2024-02-16T07:55:23;14.10;99.90
36716;DHT22;22699;51.034;3.730;2024-02-16T07:57:50;14.00;99.90
36716;DHT22;22699;51.034;3.730;2024-02-16T08:00:25;14.00;99.90
36716;DHT22;22699;51.034;3.730;2024-02-16T08:02:59;14.10;99.90
36716;DHT22;22699;51.034;3.730;2024-02-16T08:05:25;14.20;99.90
36716;DHT22;22699;51.034;3.730;2024-02-16T08:07:52;14.40;99.90
36716;DHT22;22699;51.034;3.730;2024-02-16T08:10:22;14.50;99.90
36716;DHT22;22699;51.034;3.730;2024-02-16T08:12:48;14.30;99.90
36716;DHT22;22699;51.034;3.730;2024-02-16T08:15:14;14.40;99.90
36716;DHT22;22699;51.034;3.730;2024-02-16T08:17:40;14.60;99.90
36716;DHT22;22699;51.034;3.730;2024-02-16T08:20:06;14.30;99.90
36716;DHT22;22699;51.034;3.730;2024-02-16T08:22:33;14.40;99.90
36716;DHT22;22699;51.034;3.730;2024-02-16T08:25:02;14.40;99.90
36716;DHT22;22699;51.034;3.730;2024-02-16T08:27:45;14.10;99.90
36716;DHT22;22699;51.034;3.730;2024-02-16T08:30:15;14.10;99.90
36716;DHT22;22699;51.034;3.730;2024-02-16T08:32:49;14.00;99.90
36716;DHT22;22699;51.034;3.730;2024-02-16T08:35:16;14.10;99.90
36716;DHT22;22699;51.034;3.730;2024-02-16T08:37:44;14.10;99.90
36716;DHT22;22699;51.034;3.730;2024-02-16T08:40:12;14.20;99.90
36716;DHT22;22699;51.034;3.730;2024-02-16T08:42:41;14.00;99.90
36716;DHT22;22699;51.034;3.730;2024-02-16T08:45:08;14.20;99.90
36716;DHT22;22699;51.034;3.730;2024-02-16T08:47:37;14.00;99.90
36716;DHT22;22699;51.034;3.730;2024-02-16T08:50:05;13.90;99.90
36716;DHT22;22699;51.034;3.730;2024-02-16T08:52:41;14.10;99.90
36716;DHT22;22699;51.034;3.730;2024-02-16T08:55:20;14.20;99.90
36716;DHT22;22699;51.034;3.730;2024-02-16T08:58:09;14.10;99.90
36716;DHT22;22699;51.034;3.730;2024-02-16T09:01:02;14.20;99.90
36716;DHT22;22699;51.034;3.730;2024-02-16T09:03:28;14.10;99.90
36716;DHT22;22699;51.034;3.730;2024-02-16T09:05:54;14.10;99.90
36716;DHT22;22699;51.034;3.730;2024-02-16T09:08:19;14.00;99.90
36716;DHT22;22699;51.034;3.730;2024-02-16T09:10:45;14.10;99.90
36716;DHT22;22699;51.034;3.730;2024-02-16T09:13:12;14.10;99.90
36716;DHT22;22699;51.034;3.730;2024-02-16T09:15:44;14.20;99.90
36716;DHT22;22699;51.034;3.730;2024-02-16T09:18:09;14.20;99.90
36716;DHT22;22699;51.034;3.730;2024-02-16T09:20:35;14.30;99.90
36716;DHT22;22699;51.034;3.730;2024-02-16T09:23:01;14.00;99.90
36716;DHT22;22699;51.034;3.730;2024-02-16T09:25:47;14.00;99.90
36716;DHT22;22699;51.034;3.730;2024-02-16T09:28:41;13.90;99.90
36716;DHT22;22699;51.034;3.730;2024-02-16T09:31:27;14.10;99.90
36716;DHT22;22699;51.034;3.730;2024-02-16T09:52:20;13.80;99.90
36716;DHT22;22699;51.034;3.730;2024-02-16T11:55:56;14.90;99.90
36716;DHT22;22699;51.034;3.730;2024-02-16T12:37:20;16.30;99.90
36716;DHT22;22699;51.034;3.730;2024-02-16T16:56:23;14.80;99.90
36716;DHT22;22699;51.034;3.730;2024-02-16T16:58:50;15.10;99.90
36716;DHT22;22699;51.034;3.730;2024-02-16T17:01:23;15.10;99.90
36716;DHT22;22699;51.034;3.730;2024-02-16T17:03:54;14.80;99.90
36716;DHT22;22699;51.034;3.730;2024-02-16T17:06:29;14.60;99.90
36716;DHT22;22699;51.034;3.730;2024-02-16T17:09:01;14.40;99.90
36716;DHT22;22699;51.034;3.730;2024-02-16T17:11:36;14.50;99.90
36716;DHT22;22699;51.034;3.730;2024-02-16T17:14:07;14.80;99.90
36716;DHT22;22699;51.034;3.730;2024-02-16T17:16:41;14.60;99.90
36716;DHT22;22699;51.034;3.730;2024-02-16T17:19:16;14.30;99.90
36716;DHT22;22699;51.034;3.730;2024-02-16T17:21:46;14.20;99.90
36716;DHT22;22699;51.034;3.730;2024-02-16T17:24:13;14.20;99.90
36716;DHT22;22699;51.034;3.730;2024-02-16T17:26:42;14.20;99.90
36716;DHT22;22699;51.034;3.730;2024-02-16T17:29:25;14.50;99.90
36716;DHT22;22699;51.034;3.730;2024-02-16T17:31:52;14.50;99.90
36716;DHT22;22699;51.034;3.730;2024-02-16T17:34:18;14.40;99.90
36716;DHT22;22699;51.034;3.730;2024-02-16T17:36:47;14.40;99.90
36716;DHT22;22699;51.034;3.730;2024-02-16T17:39:17;13.90;99.90
36716;DHT22;22699;51.034;3.730;2024-02-16T17:41:46;14.10;99.90
36716;DHT22;22699;51.034;3.730;2024-02-16T17:44:13;14.00;99.90
36716;DHT22;22699;51.034;3.730;2024-02-16T17:46:39;14.00;99.90
36716;DHT22;22699;51.034;3.730;2024-02-16T17:49:07;14.00;99.90
36716;DHT22;22699;51.034;3.730;2024-02-16T17:51:33;14.10;99.90
36716;DHT22;22699;51.034;3.730;2024-02-16T17:53:59;13.70;99.90
36716;DHT22;22699;51.034;3.730;2024-02-16T17:56:25;13.50;99.90
36716;DHT22;22699;51.034;3.730;2024-02-16T17:58:51;13.70;99.90
36716;DHT22;22699;51.034;3.730;2024-02-16T18:01:17;13.40;99.90
36716;DHT22;22699;51.034;3.730;2024-02-16T18:03:42;13.20;99.90
36716;DHT22;22699;51.034;3.730;2024-02-16T18:06:08;13.00;99.90
36716;DHT22;22699;51.034;3.730;2024-02-16T18:08:35;12.80;99.90
36716;DHT22;22699;51.034;3.730;2024-02-16T18:11:00;12.70;99.90
36716;DHT22;22699;51.034;3.730;2024-02-16T18:13:26;12.70;99.90
36716;DHT22;22699;51.034;3.730;2024-02-16T18:15:52;12.70;99.90
36716;DHT22;22699;51.034;3.730;2024-02-16T18:18:22;12.60;99.90
36716;DHT22;22699;51.034;3.730;2024-02-16T18:20:48;12.70;99.90
36716;DHT22;22699;51.034;3.730;2024-02-16T18:23:15;12.50;99.90
36716;DHT22;22699;51.034;3.730;2024-02-16T18:25:45;12.40;99.90
36716;DHT22;22699;51.034;3.730;2024-02-16T18:28:11;12.50;99.90
36716;DHT22;22699;51.034;3.730;2024-02-16T18:30:37;12.90;99.90
36716;DHT22;22699;51.034;3.730;2024-02-16T18:33:07;12.60;99.90
36716;DHT22;22699;51.034;3.730;2024-02-16T18:35:34;12.40;99.90
36716;DHT22;22699;51.034;3.730;2024-02-16T18:37:59;12.50;99.90
36716;DHT22;22699;51.034;3.730;2024-02-16T18:40:26;12.60;99.90
36716;DHT22;22699;51.034;3.730;2024-02-16T18:42:52;12.60;99.90
36716;DHT22;22699;51.034;3.730;2024-02-16T18:45:20;12.10;99.90
36716;DHT22;22699;51.034;3.730;2024-02-16T18:47:48;12.00;99.90
36716;DHT22;22699;51.034;3.730;2024-02-16T18:50:15;12.40;99.90
36716;DHT22;22699;51.034;3.730;2024-02-16T18:52:43;12.30;99.90
36716;DHT22;22699;51.034;3.730;2024-02-16T18:55:09;12.00;99.90
36716;DHT22;22699;51.034;3.730;2024-02-16T18:57:42;12.00;99.90
36716;DHT22;22699;51.034;3.730;2024-02-16T19:00:09;12.20;99.90
36716;DHT22;22699;51.034;3.730;2024-02-16T19:02:38;12.30;99.90
36716;DHT22;22699;51.034;3.730;2024-02-16T19:05:10;12.50;99.90
36716;DHT22;22699;51.034;3.730;2024-02-16T19:07:36;12.10;99.90
36716;DHT22;22699;51.034;3.730;2024-02-16T19:10:04;12.00;99.90
36716;DHT22;22699;51.034;3.730;2024-02-16T19:12:36;12.00;99.90
36716;DHT22;22699;51.034;3.730;2024-02-16T19:15:01;12.00;99.90
36716;DHT22;22699;51.034;3.730;2024-02-16T19:17:27;11.90;99.90
36716;DHT22;22699;51.034;3.730;2024-02-16T19:19:56;12.10;99.90
36716;DHT22;22699;51.034;3.730;2024-02-16T19:22:25;12.20;99.90
36716;DHT22;22699;51.034;3.730;2024-02-16T19:24:52;12.10;99.90
36716;DHT22;22699;51.034;3.730;2024-02-16T19:27:18;12.10;99.90
36716;DHT22;22699;51.034;3.730;2024-02-16T19:29:47;11.90;99.90
36716;DHT22;22699;51.034;3.730;2024-02-16T19:32:16;11.90;99.90
36716;DHT22;22699;51.034;3.730;2024-02-16T19:34:42;11.60;99.90
36716;DHT22;22699;51.034;3.730;2024-02-16T19:37:10;11.80;99.90
36716;DHT22;22699;51.034;3.730;2024-02-16T19:39:37;11.70;99.90
36716;DHT22;22699;51.034;3.730;2024-02-16T19:42:06;11.60;99.90
36716;DHT22;22699;51.034;3.730;2024-02-16T19:44:33;11.90;99.90
36716;DHT22;22699;51.034;3.730;2024-02-16T19:47:00;11.90;99.90
36716;DHT22;22699;51.034;3.730;2024-02-16T19:49:31;11.80;99.90
36716;DHT22;22699;51.034;3.730;2024-02-16T19:51:57;11.90;99.90
36716;DHT22;22699;51.034;3.730;2024-02-16T19:54:27;11.80;99.90
36716;DHT22;22699;51.034;3.730;2024-02-16T19:56:53;11.70;99.90
36716;DHT22;22699;51.034;3.730;2024-02-16T19:59:19;11.60;99.90
36716;DHT22;22699;51.034;3.730;2024-02-16T20:01:46;11.50;99.90
36716;DHT22;22699;51.034;3.730;2024-02-16T20:04:15;11.80;99.90
36716;DHT22;22699;51.034;3.730;2024-02-16T20:06:41;11.60;99.90
36716;DHT22;22699;51.034;3.730;2024-02-16T20:09:09;11.70;99.90
36716;DHT22;22699;51.034;3.730;2024-02-16T20:11:41;12.10;99.90
36716;DHT22;22699;51.034;3.730;2024-02-16T20:14:07;11.60;99.90
36716;DHT22;22699;51.034;3.730;2024-02-16T20:16:36;11.60;99.90
36716;DHT22;22699;51.034;3.730;2024-02-16T20:19:04;11.80;99.90
36716;DHT22;22699;51.034;3.730;2024-02-16T20:21:33;11.70;99.90
36716;DHT22;22699;51.034;3.730;2024-02-16T20:24:00;11.70;99.90
36716;DHT22;22699;51.034;3.730;2024-02-16T20:26:27;11.70;99.90
36716;DHT22;22699;51.034;3.730;2024-02-16T20:28:54;11.30;99.90
36716;DHT22;22699;51.034;3.730;2024-02-16T20:31:20;11.30;99.90
36716;DHT22;22699;51.034;3.730;2024-02-16T20:33:53;11.60;99.90
36716;DHT22;22699;51.034;3.730;2024-02-16T20:36:22;12.00;99.90
36716;DHT22;22699;51.034;3.730;2024-02-16T20:38:51;11.50;99.90
36716;DHT22;22699;51.034;3.730;2024-02-16T20:41:17;11.70;99.90
36716;DHT22;22699;51.034;3.730;2024-02-16T20:43:43;11.50;99.90
36716;DHT22;22699;51.034;3.730;2024-02-16T20:46:09;11.20;99.90
36716;DHT22;22699;51.034;3.730;2024-02-16T20:48:36;11.60;99.90
36716;DHT22;22699;51.034;3.730;2024-02-16T20:51:01;11.90;99.90
36716;DHT22;22699;51.034;3.730;2024-02-16T20:53:28;11.70;99.90
36716;DHT22;22699;51.034;3.730;2024-02-16T20:55:56;11.70;99.90
36716;DHT22;22699;51.034;3.730;2024-02-16T20:58:23;11.90;99.90
36716;DHT22;22699;51.034;3.730;2024-02-16T21:01:03;11.90;99.90
36716;DHT22;22699;51.034;3.730;2024-02-16T21:03:31;12.10;99.90
36716;DHT22;22699;51.034;3.730;2024-02-16T21:05:57;12.00;99.90
36716;DHT22;22699;51.034;3.730;2024-02-16T21:08:23;12.10;99.90
36716;DHT22;22699;51.034;3.730;2024-02-16T21:10:52;12.10;99.90
36716;DHT22;22699;51.034;3.730;2024-02-16T21:13:19;12.20;99.90
36716;DHT22;22699;51.034;3.730;2024-02-16T21:15:45;12.00;99.90
36716;DHT22;22699;51.034;3.730;2024-02-16T21:18:12;12.30;99.90
36716;DHT22;22699;51.034;3.730;2024-02-16T21:20:45;12.10;99.90
36716;DHT22;22699;51.034;3.730;2024-02-16T21:23:14;12.10;99.90
36716;DHT22;22699;51.034;3.730;2024-02-16T21:25:42;11.90;99.90
36716;DHT22;22699;51.034;3.730;2024-02-16T21:28:09;12.30;99.90
36716;DHT22;22699;51.034;3.730;2024-02-16T21:30:35;12.60;99.90
36716;DHT22;22699;51.034;3.730;2024-02-16T21:33:01;12.30;99.90
36716;DHT22;22699;51.034;3.730;2024-02-16T21:35:31;12.20;99.90
36716;DHT22;22699;51.034;3.730;2024-02-16T21:38:00;12.30;99.90
36716;DHT22;22699;51.034;3.730;2024-02-16T21:40:26;12.30;99.90
36716;DHT22;22699;51.034;3.730;2024-02-16T21:42:54;12.50;99.90
36716;DHT22;22699;51.034;3.730;2024-02-16T21:45:21;12.30;99.90
36716;DHT22;22699;51.034;3.730;2024-02-16T21:47:49;12.50;99.90
36716;DHT22;22699;51.034;3.730;2024-02-16T21:50:16;12.50;99.90
36716;DHT22;22699;51.034;3.730;2024-02-16T21:52:43;12.40;99.90
36716;DHT22;22699;51.034;3.730;2024-02-16T21:55:11;12.50;99.90
36716;DHT22;22699;51.034;3.730;2024-02-16T21:57:37;12.50;99.90
36716;DHT22;22699;51.034;3.730;2024-02-16T22:00:04;12.50;99.90
36716;DHT22;22699;51.034;3.730;2024-02-16T22:02:32;12.50;99.90
36716;DHT22;22699;51.034;3.730;2024-02-16T22:04:58;12.60;99.90
36716;DHT22;22699;51.034;3.730;2024-02-16T22:07:26;12.40;99.90
36716;DHT22;22699;51.034;3.730;2024-02-16T22:09:52;12.40;99.90
36716;DHT22;22699;51.034;3.730;2024-02-16T22:12:18;12.30;99.90
36716;DHT22;22699;51.034;3.730;2024-02-16T22:14:44;12.30;99.90
36716;DHT22;22699;51.034;3.730;2024-02-16T22:17:10;12.20;99.90
36716;DHT22;22699;51.034;3.730;2024-02-16T22:19:36;12.00;99.90
36716;DHT22;22699;51.034;3.730;2024-02-16T22:22:03;12.20;99.90
36716;DHT22;22699;51.034;3.730;2024-02-16T22:24:29;12.20;99.90
36716;DHT22;22699;51.034;3.730;2024-02-16T22:27:00;12.10;99.90
36716;DHT22;22699;51.034;3.730;2024-02-16T22:29:26;11.90;99.90
36716;DHT22;22699;51.034;3.730;2024-02-16T22:31:52;11.90;99.90
36716;DHT22;22699;51.034;3.730;2024-02-16T22:34:17;11.90;99.90
36716;DHT22;22699;51.034;3.730;2024-02-16T22:36:44;11.90;99.90
36716;DHT22;22699;51.034;3.730;2024-02-16T22:39:10;12.10;99.90
36716;DHT22;22699;51.034;3.730;2024-02-16T22:41:35;12.10;99.90
36716;DHT22;22699;51.034;3.730;2024-02-16T22:44:02;12.30;99.90
36716;DHT22;22699;51.034;3.730;2024-02-16T22:46:29;12.30;99.90
36716;DHT22;22699;51.034;3.730;2024-02-16T22:48:55;12.10;99.90